Time;durP1;ratioP1;P1;durP2;ratioP2;P2;SDS_P1;SDS_P2;PMS_P1;PMS_P2;Temp;Humidity;BMP_temperature;BMP_pressure;BME280_temperature;BME280_humidity;BME280_pressure;Samples;Min_cycle;Max_cycle;Signal;HPM_P1;HPM_P2
2023/02/21 02:14:23;;;;;;;;;;;;;;;3.09;66.86;100879.59;1953399;73;20146;-41
2023/02/21 02:16:52;;;;;;;;;;;;;;;3.22;66.98;100879.09;1953585;73;20104;-41
2023/02/21 02:19:38;;;;;;;;;;;;;;;3.31;66.40;100893.78;1954641;73;20112;-40
2023/02/21 02:22:22;;;;;;;;;;;;;;;3.37;66.54;100867.25;1955116;73;20104;-43
2023/02/21 02:24:51;;;;;;;;;;;;;;;3.44;66.56;100875.89;1921483;75;20118;-42
2023/02/21 02:27:20;;;;;;;;;;;;;;;3.47;66.37;100867.63;1920373;75;20162;-44
2023/02/21 02:29:50;;;;;;;;;;;;;;;3.52;66.25;100873.23;1919489;75;20146;-41
2023/02/21 02:32:36;;;;;;;;;;;;;;;3.56;66.41;100861.91;1917781;74;20141;-42
2023/02/21 02:35:05;;;;;;;;;;;;;;;3.57;66.69;100853.23;1952797;73;20116;-43
2023/02/21 02:37:34;;;;;;;;;;;;;;;3.61;66.78;100847.11;1952919;73;20102;-41
2023/02/21 02:40:03;;;;;;;;;;;;;;;3.63;66.74;100838.44;1952150;73;20100;-42
2023/02/21 02:42:39;;;;;;;;;;;;;;;3.65;66.63;100854.02;1948131;73;20147;-41
2023/02/21 02:45:14;;;;;;;;;;;;;;;3.68;66.75;100854.00;1953333;73;20108;-42
2023/02/21 02:47:43;;;;;;;;;;;;;;;3.71;67.82;100856.59;1952512;73;20121;-41
2023/02/21 02:50:11;;;;;;;;;;;;;;;3.51;69.92;100837.67;1949609;74;20146;-42
2023/02/21 02:52:41;;;;;;;;;;;;;;;3.29;71.80;100840.44;1931874;74;20168;-40
2023/02/21 02:55:22;;;;;;;;;;;;;;;3.14;71.99;100825.80;1934561;74;20134;-41
2023/02/21 02:57:50;;;;;;;;;;;;;;;3.02;72.77;100807.22;1925015;74;20222;-42
2023/02/21 03:00:19;;;;;;;;;;;;;;;2.95;73.97;100809.46;1923716;75;20139;-40
2023/02/21 03:02:51;;;;;;;;;;;;;;;2.91;74.50;100807.73;1940633;74;20116;-41
2023/02/21 03:05:21;;;;;;;;;;;;;;;2.92;74.65;100795.61;1949296;74;20155;-41
2023/02/21 03:07:56;;;;;;;;;;;;;;;2.93;75.16;100792.97;1950017;74;20139;-40
2023/02/21 03:10:25;;;;;;;;;;;;;;;2.94;75.72;100776.51;1950915;74;20190;-43
2023/02/21 03:13:04;;;;;;;;;;;;;;;2.97;75.98;100755.69;1949107;74;20139;-43
2023/02/21 03:15:35;;;;;;;;;;;;;;;3.01;77.25;100766.94;1949728;74;20405;-43
2023/02/21 03:18:07;;;;;;;;;;;;;;;3.02;76.89;100764.30;1949633;74;20104;-45
2023/02/21 03:20:36;;;;;;;;;;;;;;;3.02;76.77;100746.09;1943230;73;20104;-40
2023/02/21 03:23:05;;;;;;;;;;;;;;;3.03;77.07;100747.83;1939443;74;20366;-39
2023/02/21 03:25:33;;;;;;;;;;;;;;;3.04;76.94;100739.16;1927790;73;20238;-41
2023/02/21 03:28:03;;;;;;;;;;;;;;;3.06;77.64;100726.11;1935555;74;20120;-41
2023/02/21 03:30:32;;;;;;;;;;;;;;;3.07;77.64;100723.50;1932552;74;20104;-40
2023/02/21 03:33:00;;;;;;;;;;;;;;;3.06;78.15;100711.39;1925172;74;20178;-42
2023/02/21 03:35:29;;;;;;;;;;;;;;;3.06;78.20;100711.39;1923604;75;20163;-40
2023/02/21 03:37:58;;;;;;;;;;;;;;;3.04;78.31;100701.44;1923602;74;20390;-39
2023/02/21 03:40:27;;;;;;;;;;;;;;;3.04;78.84;100696.23;1923594;74;20416;-39
2023/02/21 03:42:57;;;;;;;;;;;;;;;3.05;78.93;100684.94;1935832;73;20112;-44
2023/02/21 03:45:25;;;;;;;;;;;;;;;3.08;79.27;100688.82;1890066;74;20111;-41
2023/02/21 03:48:01;;;;;;;;;;;;;;;3.14;79.80;100689.65;1896615;73;20146;-40
2023/02/21 03:50:30;;;;;;;;;;;;;;;3.16;79.67;100664.03;1970292;73;20185;-38
2023/02/21 03:52:58;;;;;;;;;;;;;;;3.21;79.60;100662.66;1976888;72;20166;-46
2023/02/21 03:55:27;;;;;;;;;;;;;;;3.25;79.60;100659.18;1975088;73;20369;-42
2023/02/21 03:57:55;;;;;;;;;;;;;;;3.31;79.63;100664.31;1972590;73;20112;-42
2023/02/21 04:00:23;;;;;;;;;;;;;;;3.40;79.51;100639.94;1972528;72;20186;-39
2023/02/21 04:02:52;;;;;;;;;;;;;;;3.48;79.43;100649.36;1972669;73;20412;-39
2023/02/21 04:05:31;;;;;;;;;;;;;;;3.60;79.10;100634.50;1974880;72;20250;-37
2023/02/21 04:08:00;;;;;;;;;;;;;;;3.75;78.55;100625.63;1976823;73;20195;-40
2023/02/21 04:10:27;;;;;;;;;;;;;;;3.89;77.87;100617.17;1964717;73;20140;-39
2023/02/21 04:12:56;;;;;;;;;;;;;;;3.96;77.50;100576.28;1942992;74;20117;-39
2023/02/21 04:15:24;;;;;;;;;;;;;;;4.03;76.87;100581.38;1943018;74;20094;-39
2023/02/21 04:17:52;;;;;;;;;;;;;;;4.13;75.99;100632.94;1943066;74;20097;-39
2023/02/21 04:20:20;;;;;;;;;;;;;;;4.20;75.10;100638.45;1943013;74;20164;-38
2023/02/21 04:22:50;;;;;;;;;;;;;;;4.28;74.83;100608.39;1942743;74;20201;-38
2023/02/21 04:25:18;;;;;;;;;;;;;;;4.33;74.54;100590.06;1943131;74;20118;-39
2023/02/21 04:27:48;;;;;;;;;;;;;;;4.37;73.77;100570.88;1942804;74;20146;-38
2023/02/21 04:30:15;;;;;;;;;;;;;;;4.40;73.85;100597.75;1943032;74;20117;-39
2023/02/21 04:32:44;;;;;;;;;;;;;;;4.45;73.59;100570.32;1943048;74;20105;-39
2023/02/21 04:35:13;;;;;;;;;;;;;;;4.50;72.63;100563.29;1942855;74;20130;-38
2023/02/21 04:37:43;;;;;;;;;;;;;;;4.53;73.02;100578.86;1943020;74;20129;-39
2023/02/21 04:40:12;;;;;;;;;;;;;;;4.54;73.02;100562.80;1942981;74;20101;-39
2023/02/21 04:42:40;;;;;;;;;;;;;;;4.54;72.96;100562.34;1943023;74;20148;-38
2023/02/21 04:45:08;;;;;;;;;;;;;;;4.50;72.63;100506.34;1942977;74;20114;-39
2023/02/21 04:47:36;;;;;;;;;;;;;;;4.49;72.62;100566.77;1943012;74;20129;-38
2023/02/21 04:50:05;;;;;;;;;;;;;;;4.44;71.55;100516.45;1921476;74;20102;-39
2023/02/21 04:52:33;;;;;;;;;;;;;;;4.40;71.38;100503.05;1914016;75;20111;-39
2023/02/21 04:55:01;;;;;;;;;;;;;;;4.33;72.00;100541.84;1914038;75;20169;-38
2023/02/21 04:57:28;;;;;;;;;;;;;;;4.24;71.88;100538.93;1914045;75;20149;-39
2023/02/21 04:59:57;;;;;;;;;;;;;;;4.21;71.32;100537.25;1914059;75;20115;-38
2023/02/21 05:02:26;;;;;;;;;;;;;;;4.13;70.68;100334.58;1914025;75;20115;-39
2023/02/21 05:04:53;;;;;;;;;;;;;;;4.03;70.25;100524.51;1913927;75;20102;-39
2023/02/21 05:07:21;;;;;;;;;;;;;;;4.08;69.26;100509.67;1914035;75;20122;-39
2023/02/21 05:09:49;;;;;;;;;;;;;;;4.14;69.00;100517.38;1914034;75;20165;-39
2023/02/21 05:12:17;;;;;;;;;;;;;;;4.16;69.07;100502.57;1914039;75;20115;-39
2023/02/21 05:14:44;;;;;;;;;;;;;;;4.12;69.81;100517.84;1914015;75;20103;-39
2023/02/21 05:17:12;;;;;;;;;;;;;;;4.06;70.66;100478.88;1913957;75;20118;-40
2023/02/21 05:19:40;;;;;;;;;;;;;;;4.00;71.35;100531.06;1914175;75;20368;-39
2023/02/21 05:22:08;;;;;;;;;;;;;;;3.94;71.01;100516.38;1914062;75;20122;-39
2023/02/21 05:24:41;;;;;;;;;;;;;;;3.82;71.86;100508.33;1913996;75;20114;-38
2023/02/21 05:27:10;;;;;;;;;;;;;;;3.71;73.82;100484.19;1913627;75;20377;-39
2023/02/21 05:29:35;;;;;;;;;;;;;;;3.63;75.13;100503.84;1913707;75;20115;-38
2023/02/21 05:32:03;;;;;;;;;;;;;;;3.58;75.92;100499.13;1913918;75;20107;-39
2023/02/21 05:34:31;;;;;;;;;;;;;;;3.64;75.92;100473.45;1914016;75;20150;-39
2023/02/21 05:36:59;;;;;;;;;;;;;;;3.72;74.58;100456.39;1914027;75;20150;-39
2023/02/21 05:39:26;;;;;;;;;;;;;;;3.82;73.84;100514.84;1914112;75;20372;-39
2023/02/21 05:41:54;;;;;;;;;;;;;;;3.90;72.68;100491.72;1913993;74;20127;-38
2023/02/21 05:44:22;;;;;;;;;;;;;;;3.96;72.14;100498.13;1913955;75;20193;-40
2023/02/21 05:46:49;;;;;;;;;;;;;;;4.01;71.64;100514.55;1913988;75;20118;-39
2023/02/21 05:49:17;;;;;;;;;;;;;;;4.04;71.88;100488.47;1914083;74;20102;-39
2023/02/21 05:51:45;;;;;;;;;;;;;;;4.08;71.69;100493.15;1913997;75;20118;-39
2023/02/21 05:54:17;;;;;;;;;;;;;;;4.11;72.30;100428.82;1914092;75;20415;-39
2023/02/21 05:56:46;;;;;;;;;;;;;;;4.13;72.63;100463.98;1914033;75;20149;-38
2023/02/21 05:59:14;;;;;;;;;;;;;;;4.11;73.46;100473.57;1914060;75;20197;-39
2023/02/21 06:01:41;;;;;;;;;;;;;;;4.08;74.43;100502.27;1914130;75;20174;-39
2023/02/21 06:04:09;;;;;;;;;;;;;;;4.01;74.82;100324.38;1914100;75;20115;-38
2023/02/21 06:06:37;;;;;;;;;;;;;;;3.97;75.51;100525.46;1914107;75;20115;-38
2023/02/21 06:09:05;;;;;;;;;;;;;;;3.93;75.25;100495.56;1914220;74;20119;-39
2023/02/21 06:11:33;;;;;;;;;;;;;;;3.93;75.05;100477.33;1914139;75;20119;-39
2023/02/21 06:14:05;;;;;;;;;;;;;;;3.95;75.05;100499.03;1914104;75;20200;-39
2023/02/21 06:16:34;;;;;;;;;;;;;;;4.00;74.25;100491.98;1914132;75;20196;-39
2023/02/21 06:19:01;;;;;;;;;;;;;;;4.06;74.14;100456.73;1914128;75;20150;-38
2023/02/21 06:21:29;;;;;;;;;;;;;;;4.11;73.74;100422.31;1914102;75;20149;-38
2023/02/21 06:23:57;;;;;;;;;;;;;;;4.18;73.78;100473.44;1914057;75;20149;-40
2023/02/21 06:26:25;;;;;;;;;;;;;;;4.22;72.83;100413.88;1914041;75;20282;-38
2023/02/21 06:28:53;;;;;;;;;;;;;;;4.24;72.68;100454.23;1914082;75;20107;-39
2023/02/21 06:31:22;;;;;;;;;;;;;;;4.26;72.83;100470.72;1914096;75;20244;-39
2023/02/21 06:33:50;;;;;;;;;;;;;;;4.22;72.53;100466.00;1914114;75;20145;-38
2023/02/21 06:36:19;;;;;;;;;;;;;;;4.16;72.53;100432.22;1914124;75;20161;-38
2023/02/21 06:38:49;;;;;;;;;;;;;;;4.14;73.09;100465.26;1912848;75;20145;-38
2023/02/21 06:41:18;;;;;;;;;;;;;;;4.10;73.41;100312.92;1914182;75;20172;-39
2023/02/21 06:43:46;;;;;;;;;;;;;;;4.13;73.77;100437.92;1914099;75;20118;-39
2023/02/21 06:46:18;;;;;;;;;;;;;;;4.14;74.26;100455.29;1914054;75;20123;-38
2023/02/21 06:48:46;;;;;;;;;;;;;;;4.12;74.77;100421.89;1914204;75;20377;-39
2023/02/21 06:51:16;;;;;;;;;;;;;;;4.12;75.36;100472.25;1907684;74;20115;-39
2023/02/21 06:53:45;;;;;;;;;;;;;;;4.04;76.06;100429.84;1904593;75;20389;-39
2023/02/21 06:56:12;;;;;;;;;;;;;;;3.98;76.23;100448.16;1904749;75;20393;-38
2023/02/21 06:58:40;;;;;;;;;;;;;;;3.92;77.16;100407.89;1904632;75;20149;-38
2023/02/21 07:01:08;;;;;;;;;;;;;;;3.93;77.54;100402.66;1904610;75;20103;-39
2023/02/21 07:03:37;;;;;;;;;;;;;;;3.93;77.38;100399.18;1904570;75;20118;-39
2023/02/21 07:06:05;;;;;;;;;;;;;;;3.95;77.89;100403.95;1904708;75;20190;-38
2023/02/21 07:08:33;;;;;;;;;;;;;;;4.01;78.22;100388.20;1904648;75;20157;-38
2023/02/21 07:11:00;;;;;;;;;;;;;;;4.02;78.79;100366.45;1904719;75;20115;-38
2023/02/21 07:13:28;;;;;;;;;;;;;;;4.03;78.86;100362.98;1904624;75;20149;-38
2023/02/21 07:15:56;;;;;;;;;;;;;;;4.08;79.30;100383.30;1872424;75;20115;-38
2023/02/21 07:18:24;;;;;;;;;;;;;;;4.13;79.38;100372.78;1904572;75;20151;-39
2023/02/21 07:20:51;;;;;;;;;;;;;;;4.19;79.79;100405.26;1904736;75;20353;-39
2023/02/21 07:23:19;;;;;;;;;;;;;;;4.27;80.34;100405.97;1904618;75;20119;-38
2023/02/21 07:25:47;;;;;;;;;;;;;;;4.32;80.74;100387.65;1904613;75;20155;-38
2023/02/21 07:28:15;;;;;;;;;;;;;;;4.37;80.94;100377.97;1904615;75;20139;-38
2023/02/21 07:30:42;;;;;;;;;;;;;;;4.46;80.81;100401.25;1904535;75;20200;-39
2023/02/21 07:33:10;;;;;;;;;;;;;;;4.52;81.25;100388.12;1904632;75;20181;-38
2023/02/21 07:35:38;;;;;;;;;;;;;;;4.57;81.55;100374.97;1904596;75;20119;-39
2023/02/21 07:38:05;;;;;;;;;;;;;;;4.62;81.31;100358.34;1904578;75;20111;-38
2023/02/21 07:40:33;;;;;;;;;;;;;;;4.69;81.41;100317.81;1904498;75;20127;-39
2023/02/21 07:43:01;;;;;;;;;;;;;;;4.74;81.20;100246.82;1904702;75;20362;-39
2023/02/21 07:45:29;;;;;;;;;;;;;;;4.81;81.36;100339.27;1904450;75;20159;-39
2023/02/21 07:47:57;;;;;;;;;;;;;;;4.86;82.05;100327.88;1904590;75;20103;-38
2023/02/21 07:50:24;;;;;;;;;;;;;;;4.91;81.65;100353.42;1904562;74;20119;-38
2023/02/21 07:52:52;;;;;;;;;;;;;;;4.96;81.70;100302.84;1904689;75;20155;-39
2023/02/21 07:55:20;;;;;;;;;;;;;;;5.00;81.96;100348.84;1904646;75;20388;-38
2023/02/21 07:57:48;;;;;;;;;;;;;;;5.02;82.21;100317.50;1904499;75;20123;-39
2023/02/21 08:00:16;;;;;;;;;;;;;;;5.01;82.46;100318.38;1904580;75;20145;-39
2023/02/21 08:02:50;;;;;;;;;;;;;;;5.02;82.85;100332.70;1904667;75;20111;-38
2023/02/21 08:05:19;;;;;;;;;;;;;;;5.05;83.05;100308.73;1904669;75;20145;-39
2023/02/21 08:07:46;;;;;;;;;;;;;;;5.09;83.08;100264.70;1904816;75;20388;-38
2023/02/21 08:10:16;;;;;;;;;;;;;;;5.13;83.32;100330.31;1904573;75;20115;-43
2023/02/21 08:12:43;;;;;;;;;;;;;;;5.16;83.75;100311.95;1903748;75;20123;-39
2023/02/21 08:15:11;;;;;;;;;;;;;;;5.21;83.75;100250.06;1904600;75;20115;-39
2023/02/21 08:17:39;;;;;;;;;;;;;;;5.26;83.79;100308.23;1904605;75;20107;-38
2023/02/21 08:20:07;;;;;;;;;;;;;;;5.31;84.05;100268.53;1904675;75;20115;-39
2023/02/21 08:22:36;;;;;;;;;;;;;;;5.36;83.71;100271.86;1904589;75;20149;-38
2023/02/21 08:25:04;;;;;;;;;;;;;;;5.42;83.87;100285.20;1904520;75;20389;-38
2023/02/21 08:27:32;;;;;;;;;;;;;;;5.46;83.69;100287.30;1904606;75;20115;-38
2023/02/21 08:29:59;;;;;;;;;;;;;;;5.52;83.88;100297.61;1904587;75;20107;-38
2023/02/21 08:32:27;;;;;;;;;;;;;;;5.57;84.04;100257.84;1904567;75;20110;-39
2023/02/21 08:34:55;;;;;;;;;;;;;;;5.61;83.95;100241.22;1904573;75;20115;-39
2023/02/21 08:37:22;;;;;;;;;;;;;;;5.66;83.71;100328.13;1904562;75;20165;-39
2023/02/21 08:39:51;;;;;;;;;;;;;;;5.72;83.85;100280.12;1904566;75;20232;-39
2023/02/21 08:42:20;;;;;;;;;;;;;;;5.75;83.98;100297.84;1904568;75;20145;-39
2023/02/21 08:44:48;;;;;;;;;;;;;;;5.79;83.83;100276.41;1904706;75;20149;-39
2023/02/21 08:47:16;;;;;;;;;;;;;;;5.83;83.80;100272.84;1904522;75;20115;-39
2023/02/21 08:49:47;;;;;;;;;;;;;;;5.89;83.92;100290.96;1904574;75;20153;-38
2023/02/21 08:52:17;;;;;;;;;;;;;;;5.92;83.91;100214.23;1910114;73;20209;-39
2023/02/21 08:54:45;;;;;;;;;;;;;;;5.94;83.40;100283.86;1914143;75;20393;-39
2023/02/21 08:57:12;;;;;;;;;;;;;;;5.98;83.37;100261.16;1914003;75;20138;-39
2023/02/21 08:59:41;;;;;;;;;;;;;;;6.03;83.18;100232.26;1914033;75;20114;-38
2023/02/21 09:02:11;;;;;;;;;;;;;;;6.07;82.96;100248.25;1914029;75;20118;-38
2023/02/21 09:04:39;;;;;;;;;;;;;;;6.09;83.27;100277.39;1911466;75;20146;-39
2023/02/21 09:07:07;;;;;;;;;;;;;;;6.11;83.43;100258.59;1913993;75;20115;-38
2023/02/21 09:09:36;;;;;;;;;;;;;;;6.15;83.50;100249.75;1914021;75;20115;-38
2023/02/21 09:12:07;;;;;;;;;;;;;;;6.19;83.78;100242.22;1914025;75;20150;-39
2023/02/21 09:14:34;;;;;;;;;;;;;;;6.21;84.31;100260.95;1913996;75;20188;-38
2023/02/21 09:17:02;;;;;;;;;;;;;;;6.23;84.18;100252.60;1913926;75;20126;-39
2023/02/21 09:19:30;;;;;;;;;;;;;;;6.25;84.12;100256.03;1914040;75;20119;-38
2023/02/21 09:21:58;;;;;;;;;;;;;;;6.28;84.04;100256.80;1914040;75;20119;-38
2023/02/21 09:24:26;;;;;;;;;;;;;;;6.29;84.23;100255.03;1914030;75;20118;-38
2023/02/21 09:26:57;;;;;;;;;;;;;;;6.29;84.01;100241.53;1913942;75;20119;-38
2023/02/21 09:29:25;;;;;;;;;;;;;;;6.27;83.87;100272.52;1914151;75;20118;-38
2023/02/21 09:31:53;;;;;;;;;;;;;;;6.25;84.14;100275.17;1913958;75;20252;-38
2023/02/21 09:34:21;;;;;;;;;;;;;;;6.25;84.39;100259.95;1914015;75;20106;-39
2023/02/21 09:36:53;;;;;;;;;;;;;;;6.27;84.44;100256.83;1914001;75;20153;-39
2023/02/21 09:39:18;;;;;;;;;;;;;;;6.29;84.36;100264.18;1913470;75;20119;-39
2023/02/21 09:41:47;;;;;;;;;;;;;;;6.31;84.12;100255.88;1914007;75;20127;-39
2023/02/21 09:44:16;;;;;;;;;;;;;;;6.34;84.09;100264.48;1913900;75;20111;-38
2023/02/21 09:46:46;;;;;;;;;;;;;;;6.34;84.38;100268.83;1912906;74;20110;-39
2023/02/21 09:49:16;;;;;;;;;;;;;;;6.34;84.55;100233.53;1914208;75;20404;-39
2023/02/21 09:51:44;;;;;;;;;;;;;;;6.37;84.54;100253.91;1910224;73;20392;-39
2023/02/21 09:54:25;;;;;;;;;;;;;;;6.43;84.48;100216.25;1904558;75;20119;-39
2023/02/21 09:56:53;;;;;;;;;;;;;;;6.48;84.36;100175.59;1904498;75;20200;-39
2023/02/21 09:59:24;;;;;;;;;;;;;;;6.52;84.33;100247.36;1904573;75;20102;-39
2023/02/21 10:01:54;;;;;;;;;;;;;;;6.56;84.46;100248.98;1904514;75;20150;-39
2023/02/21 10:04:24;;;;;;;;;;;;;;;6.60;84.48;100236.66;1903727;75;20146;-38
2023/02/21 10:06:57;;;;;;;;;;;;;;;6.62;84.62;100261.47;1903750;75;20150;-38
2023/02/21 10:09:44;;;;;;;;;;;;;;;6.64;84.54;100213.45;1904486;75;20213;-38
2023/02/21 10:12:16;;;;;;;;;;;;;;;6.67;84.59;100253.89;1904493;75;20162;-38
2023/02/21 10:15:02;;;;;;;;;;;;;;;6.72;84.52;100228.44;1904516;75;20123;-38
2023/02/21 10:17:31;;;;;;;;;;;;;;;6.75;84.46;100266.30;1904408;75;20115;-38
2023/02/21 10:20:06;;;;;;;;;;;;;;;6.80;84.64;100255.67;1904513;75;20145;-38
2023/02/21 10:22:35;;;;;;;;;;;;;;;6.84;84.97;100263.86;1903826;75;20119;-38
2023/02/21 10:25:05;;;;;;;;;;;;;;;6.87;84.87;100228.41;1904515;75;20166;-39
2023/02/21 10:27:33;;;;;;;;;;;;;;;6.91;84.95;100236.56;1901669;75;20123;-38
2023/02/21 10:30:03;;;;;;;;;;;;;;;6.94;84.63;100212.92;1904488;75;20145;-40
2023/02/21 10:32:31;;;;;;;;;;;;;;;6.93;84.50;100217.77;1903900;75;20119;-39
2023/02/21 10:35:00;;;;;;;;;;;;;;;6.93;84.61;100241.33;1904629;75;20103;-38
2023/02/21 10:37:41;;;;;;;;;;;;;;;6.90;84.57;100232.25;1904482;75;20111;-39
2023/02/21 10:40:27;;;;;;;;;;;;;;;6.90;84.56;100237.95;1904583;75;20123;-39
2023/02/21 10:42:57;;;;;;;;;;;;;;;6.93;84.56;100251.79;1904676;75;20119;-39
2023/02/21 10:45:26;;;;;;;;;;;;;;;6.96;84.42;100224.19;1895723;75;20150;-39
2023/02/21 10:48:00;;;;;;;;;;;;;;;6.96;84.26;100229.42;1904307;75;20384;-39
2023/02/21 10:50:42;;;;;;;;;;;;;;;6.98;84.38;100237.70;1872496;75;20376;-38
2023/02/21 10:53:12;;;;;;;;;;;;;;;6.93;84.47;100240.02;1909303;74;20145;-39
2023/02/21 10:55:39;;;;;;;;;;;;;;;6.93;84.60;100237.40;1912233;74;20122;-39
2023/02/21 10:58:09;;;;;;;;;;;;;;;6.92;84.85;100225.20;1914073;75;20111;-39
2023/02/21 11:00:41;;;;;;;;;;;;;;;6.89;84.81;100230.52;1914097;75;20115;-38
2023/02/21 11:03:19;;;;;;;;;;;;;;;6.85;84.86;100218.45;1914061;75;20531;-38
2023/02/21 11:06:00;;;;;;;;;;;;;;;6.84;85.13;100229.84;1914066;75;20150;-38
2023/02/21 11:08:34;;;;;;;;;;;;;;;6.80;85.16;100228.20;1913107;75;20419;-39
2023/02/21 11:11:02;;;;;;;;;;;;;;;6.81;85.41;100216.84;1912831;75;20127;-39
2023/02/21 11:13:32;;;;;;;;;;;;;;;6.83;85.38;100196.70;1914082;75;20119;-39
2023/02/21 11:16:14;;;;;;;;;;;;;;;6.83;85.40;100218.95;1914113;75;20376;-39
2023/02/21 11:18:42;;;;;;;;;;;;;;;6.82;85.47;100217.23;1914255;75;20119;-38
2023/02/21 11:21:11;;;;;;;;;;;;;;;6.82;85.62;100202.83;1914312;75;20396;-38
2023/02/21 11:23:41;;;;;;;;;;;;;;;6.81;85.59;100205.06;1912976;75;20126;-38
2023/02/21 11:26:10;;;;;;;;;;;;;;;6.83;85.66;100196.70;1906073;75;20115;-39
2023/02/21 11:28:42;;;;;;;;;;;;;;;6.86;85.72;100207.09;1914091;75;20166;-38
2023/02/21 11:31:13;;;;;;;;;;;;;;;6.90;85.60;100208.69;1914050;75;20137;-38
2023/02/21 11:33:42;;;;;;;;;;;;;;;6.95;85.50;100200.25;1912805;75;20150;-38
2023/02/21 11:36:14;;;;;;;;;;;;;;;7.00;85.42;100203.16;1914032;75;20103;-38
2023/02/21 11:38:44;;;;;;;;;;;;;;;7.05;85.31;100196.86;1914103;75;20369;-39
2023/02/21 11:41:17;;;;;;;;;;;;;;;7.13;85.53;100193.98;1914177;75;20119;-38
2023/02/21 11:43:47;;;;;;;;;;;;;;;7.23;85.41;100195.83;1914023;74;20107;-38
2023/02/21 11:46:19;;;;;;;;;;;;;;;7.28;85.22;100201.31;1914057;75;20166;-38
2023/02/21 11:49:00;;;;;;;;;;;;;;;7.35;85.00;100196.73;1907653;75;20110;-38
2023/02/21 11:51:48;;;;;;;;;;;;;;;7.43;84.98;100199.08;1913985;75;20099;-39
2023/02/21 11:54:16;;;;;;;;;;;;;;;7.44;85.06;100191.64;1913982;75;20385;-38
2023/02/21 11:56:48;;;;;;;;;;;;;;;7.40;84.90;100196.59;1914286;75;20118;-38
2023/02/21 11:59:20;;;;;;;;;;;;;;;7.37;84.94;100197.53;1914177;75;20124;-38
2023/02/21 12:01:49;;;;;;;;;;;;;;;7.39;85.08;100196.17;1913963;75;20145;-38
2023/02/21 12:04:21;;;;;;;;;;;;;;;7.34;85.06;100198.50;1913266;75;20103;-38
2023/02/21 12:06:57;;;;;;;;;;;;;;;7.33;85.19;100205.95;1914134;75;20119;-38
2023/02/21 12:09:26;;;;;;;;;;;;;;;7.38;85.53;100199.69;1914075;75;20200;-38
2023/02/21 12:11:55;;;;;;;;;;;;;;;7.38;85.57;100190.52;1914086;75;20201;-38
2023/02/21 12:14:40;;;;;;;;;;;;;;;7.35;85.40;100179.24;1874138;75;20119;-38
2023/02/21 12:17:12;;;;;;;;;;;;;;;7.39;85.48;100183.08;1913387;74;20107;-38
2023/02/21 12:19:58;;;;;;;;;;;;;;;7.41;85.37;100182.56;1914063;75;20149;-38
2023/02/21 12:22:36;;;;;;;;;;;;;;;7.46;85.25;100158.38;1914058;75;20148;-38
2023/02/21 12:25:09;;;;;;;;;;;;;;;7.56;85.18;100170.69;1912299;75;20528;-38
2023/02/21 12:27:39;;;;;;;;;;;;;;;7.69;84.86;100153.18;1913253;75;20607;-39
2023/02/21 12:30:08;;;;;;;;;;;;;;;7.81;84.64;100161.50;1914021;75;20103;-38
2023/02/21 12:32:40;;;;;;;;;;;;;;;7.98;84.61;100165.64;1912613;75;20119;-38
2023/02/21 12:35:26;;;;;;;;;;;;;;;8.17;84.04;100167.14;1913987;75;20118;-39
2023/02/21 12:37:55;;;;;;;;;;;;;;;8.40;83.70;100167.54;1914178;75;20126;-38
2023/02/21 12:40:31;;;;;;;;;;;;;;;8.59;83.24;100171.63;1914021;74;20119;-39
2023/02/21 12:43:06;;;;;;;;;;;;;;;8.62;82.47;100161.48;1914064;75;20115;-38
2023/02/21 12:45:44;;;;;;;;;;;;;;;8.62;82.25;100168.05;1912210;75;20145;-40
2023/02/21 12:48:26;;;;;;;;;;;;;;;8.56;81.89;100166.95;1913374;75;20146;-38
2023/02/21 12:50:56;;;;;;;;;;;;;;;8.48;81.83;100145.84;1913864;74;20385;-38
2023/02/21 12:53:34;;;;;;;;;;;;;;;8.39;81.80;100165.84;1912807;74;20115;-38
2023/02/21 12:56:22;;;;;;;;;;;;;;;8.28;81.85;100160.14;1904260;75;20116;-38
2023/02/21 12:58:51;;;;;;;;;;;;;;;8.25;81.84;100176.02;1904540;75;20111;-38
2023/02/21 13:01:20;;;;;;;;;;;;;;;8.27;81.96;100165.00;1904464;75;20103;-40
2023/02/21 13:03:52;;;;;;;;;;;;;;;8.31;81.81;100138.58;1904496;75;20115;-37
2023/02/21 13:06:21;;;;;;;;;;;;;;;8.40;81.43;100184.59;1904457;75;20119;-38
2023/02/21 13:08:56;;;;;;;;;;;;;;;8.58;80.88;100139.76;1904488;75;20182;-37
2023/02/21 13:11:41;;;;;;;;;;;;;;;8.72;79.99;100142.27;1904252;75;20162;-38
2023/02/21 13:14:13;;;;;;;;;;;;;;;8.83;79.95;100146.62;1904582;75;20153;-38
2023/02/21 13:16:40;;;;;;;;;;;;;;;8.82;79.56;100132.64;1904578;75;20119;-37
2023/02/21 13:19:10;;;;;;;;;;;;;;;8.75;79.09;100150.03;1904507;75;20228;-38
2023/02/21 13:21:45;;;;;;;;;;;;;;;8.63;78.97;100143.48;1904661;75;20396;-37
2023/02/21 13:24:30;;;;;;;;;;;;;;;8.50;78.81;100108.59;1904556;75;20145;-37
2023/02/21 13:27:00;;;;;;;;;;;;;;;8.38;78.91;100122.16;1904552;75;20111;-37
2023/02/21 13:29:29;;;;;;;;;;;;;;;8.31;79.06;100095.77;1904529;75;20149;-38
2023/02/21 13:31:59;;;;;;;;;;;;;;;8.29;78.99;100071.37;1904542;75;20115;-38
2023/02/21 13:34:28;;;;;;;;;;;;;;;8.26;79.02;100096.40;1901125;75;20115;-39
2023/02/21 13:36:57;;;;;;;;;;;;;;;8.21;79.06;100098.37;1904520;75;20115;-39
2023/02/21 13:39:30;;;;;;;;;;;;;;;8.17;79.07;100091.52;1904085;75;20170;-38
2023/02/21 13:42:02;;;;;;;;;;;;;;;8.14;79.16;100091.66;1904431;75;20115;-38
2023/02/21 13:44:31;;;;;;;;;;;;;;;8.14;79.30;100109.55;1898065;75;20119;-38
2023/02/21 13:47:01;;;;;;;;;;;;;;;8.12;79.20;100113.53;1904650;75;20111;-38
2023/02/21 13:49:40;;;;;;;;;;;;;;;8.09;79.13;100103.16;1904495;75;20119;-38
2023/02/21 13:52:21;;;;;;;;;;;;;;;8.07;79.25;100038.13;1904536;75;20106;-38
2023/02/21 13:55:09;;;;;;;;;;;;;;;8.03;79.31;100126.16;1909452;74;20123;-38
2023/02/21 13:57:38;;;;;;;;;;;;;;;8.02;79.44;100127.05;1913961;75;20122;-39
2023/02/21 14:00:24;;;;;;;;;;;;;;;7.98;79.73;100129.41;1914007;75;20110;-38
2023/02/21 14:03:06;;;;;;;;;;;;;;;7.98;79.80;100123.70;1913886;75;20153;-39
2023/02/21 14:05:38;;;;;;;;;;;;;;;7.99;79.80;100133.28;1914007;75;20149;-39
2023/02/21 14:08:07;;;;;;;;;;;;;;;8.01;79.66;100115.72;1897758;75;20184;-39
2023/02/21 14:10:39;;;;;;;;;;;;;;;8.03;79.66;100132.25;1913005;75;20149;-39
2023/02/21 14:13:21;;;;;;;;;;;;;;;8.03;79.55;100125.69;1913912;75;20103;-41
2023/02/21 14:15:50;;;;;;;;;;;;;;;8.04;79.51;100116.92;1913996;75;20153;-39
2023/02/21 14:18:22;;;;;;;;;;;;;;;8.02;79.52;100095.59;1914193;75;20114;-39
2023/02/21 14:20:51;;;;;;;;;;;;;;;7.99;79.57;100107.06;1913982;73;20153;-39
2023/02/21 14:23:19;;;;;;;;;;;;;;;7.98;79.45;100071.73;1914111;75;20141;-39
2023/02/21 14:25:55;;;;;;;;;;;;;;;7.96;79.40;100078.34;1913987;75;20145;-39
2023/02/21 14:28:40;;;;;;;;;;;;;;;7.96;79.40;100060.45;1914078;75;20118;-39
2023/02/21 14:31:09;;;;;;;;;;;;;;;7.97;79.29;100051.22;1850409;78;20166;-39
2023/02/21 14:33:37;;;;;;;;;;;;;;;7.96;79.24;100092.75;1894204;75;20111;-39
2023/02/21 14:36:07;;;;;;;;;;;;;;;7.98;79.13;100119.77;1914024;75;20169;-41
2023/02/21 14:38:39;;;;;;;;;;;;;;;7.97;79.02;100091.86;1913375;75;20153;-38
2023/02/21 14:41:14;;;;;;;;;;;;;;;7.99;78.87;100131.13;1914242;75;20102;-38
2023/02/21 14:43:54;;;;;;;;;;;;;;;7.97;78.88;100127.25;1914096;75;20146;-38
2023/02/21 14:46:39;;;;;;;;;;;;;;;7.96;78.88;100117.66;1913663;74;20141;-40
2023/02/21 14:49:26;;;;;;;;;;;;;;;7.94;79.06;100116.87;1913514;75;20149;-39
2023/02/21 14:51:59;;;;;;;;;;;;;;;7.93;79.19;100136.15;1914090;75;20149;-39
2023/02/21 14:54:45;;;;;;;;;;;;;;;7.92;79.43;100127.88;1913929;74;20122;-39
2023/02/21 14:57:14;;;;;;;;;;;;;;;7.92;79.48;100135.73;1914043;75;20149;-39
2023/02/21 14:59:59;;;;;;;;;;;;;;;7.92;79.57;100136.58;1912515;75;20149;-39
2023/02/21 15:02:45;;;;;;;;;;;;;;;7.92;79.67;100147.53;1914177;75;20114;-39
2023/02/21 15:05:30;;;;;;;;;;;;;;;7.91;79.63;100145.37;1913991;75;20115;-39
2023/02/21 15:07:59;;;;;;;;;;;;;;;7.91;79.67;100145.37;1914015;75;20107;-39
2023/02/21 15:10:28;;;;;;;;;;;;;;;7.91;79.72;100137.52;1905802;75;20106;-37
2023/02/21 15:12:57;;;;;;;;;;;;;;;7.93;79.76;100144.02;1914091;75;20153;-37
2023/02/21 15:15:26;;;;;;;;;;;;;;;7.93;79.71;100121.73;1914062;75;20170;-38
2023/02/21 15:17:55;;;;;;;;;;;;;;;7.92;79.70;100139.20;1913964;75;20115;-39
2023/02/21 15:20:23;;;;;;;;;;;;;;;7.91;79.71;100132.70;1913184;75;20145;-39